sensor_id;sensor_type;location;lat;lon;timestamp;P1;durP1;ratioP1;P2;durP2;ratioP2
29218;SDS011;16421;50.202;7.852;2023-09-08T00:02:58;2.67;;;2.30;;
29218;SDS011;16421;50.202;7.852;2023-09-08T00:08:02;2.17;;;1.98;;
29218;SDS011;16421;50.202;7.852;2023-09-08T00:13:06;3.20;;;2.20;;
29218;SDS011;16421;50.202;7.852;2023-09-08T00:18:11;2.75;;;2.22;;
29218;SDS011;16421;50.202;7.852;2023-09-08T00:23:14;2.88;;;2.42;;
29218;SDS011;16421;50.202;7.852;2023-09-08T00:28:17;2.80;;;2.13;;
29218;SDS011;16421;50.202;7.852;2023-09-08T00:33:22;4.78;;;2.58;;
29218;SDS011;16421;50.202;7.852;2023-09-08T00:38:25;4.50;;;2.33;;
29218;SDS011;16421;50.202;7.852;2023-09-08T00:43:29;4.45;;;2.42;;
29218;SDS011;16421;50.202;7.852;2023-09-08T00:48:33;2.60;;;1.85;;
29218;SDS011;16421;50.202;7.852;2023-09-08T00:53:39;4.30;;;2.33;;
29218;SDS011;16421;50.202;7.852;2023-09-08T00:58:43;2.38;;;2.03;;
29218;SDS011;16421;50.202;7.852;2023-09-08T01:03:49;2.78;;;2.10;;
29218;SDS011;16421;50.202;7.852;2023-09-08T01:08:53;2.90;;;2.00;;
29218;SDS011;16421;50.202;7.852;2023-09-08T01:13:58;2.50;;;1.95;;
29218;SDS011;16421;50.202;7.852;2023-09-08T01:19:03;4.15;;;2.00;;
29218;SDS011;16421;50.202;7.852;2023-09-08T01:24:16;2.65;;;2.35;;
29218;SDS011;16421;50.202;7.852;2023-09-08T01:29:25;2.95;;;2.08;;
29218;SDS011;16421;50.202;7.852;2023-09-08T01:34:29;4.05;;;2.42;;
29218;SDS011;16421;50.202;7.852;2023-09-08T01:39:34;3.25;;;2.03;;
29218;SDS011;16421;50.202;7.852;2023-09-08T01:44:39;2.80;;;1.90;;
29218;SDS011;16421;50.202;7.852;2023-09-08T01:49:42;2.25;;;2.00;;
29218;SDS011;16421;50.202;7.852;2023-09-08T01:54:46;4.05;;;2.17;;
29218;SDS011;16421;50.202;7.852;2023-09-08T01:59:50;2.85;;;2.28;;
29218;SDS011;16421;50.202;7.852;2023-09-08T02:04:54;2.58;;;2.17;;
29218;SDS011;16421;50.202;7.852;2023-09-08T02:09:57;2.88;;;1.92;;
29218;SDS011;16421;50.202;7.852;2023-09-08T02:15:02;2.58;;;2.10;;
29218;SDS011;16421;50.202;7.852;2023-09-08T02:20:08;3.05;;;2.45;;
29218;SDS011;16421;50.202;7.852;2023-09-08T02:25:13;3.13;;;2.20;;
29218;SDS011;16421;50.202;7.852;2023-09-08T02:30:17;2.58;;;2.05;;
29218;SDS011;16421;50.202;7.852;2023-09-08T02:35:21;2.67;;;2.22;;
29218;SDS011;16421;50.202;7.852;2023-09-08T02:40:28;3.72;;;2.10;;
29218;SDS011;16421;50.202;7.852;2023-09-08T02:45:33;2.17;;;1.98;;
29218;SDS011;16421;50.202;7.852;2023-09-08T02:50:37;2.27;;;2.00;;
29218;SDS011;16421;50.202;7.852;2023-09-08T02:55:41;2.38;;;1.85;;
29218;SDS011;16421;50.202;7.852;2023-09-08T03:00:45;3.13;;;2.35;;
29218;SDS011;16421;50.202;7.852;2023-09-08T03:05:53;3.05;;;2.00;;
29218;SDS011;16421;50.202;7.852;2023-09-08T03:10:58;3.78;;;2.10;;
29218;SDS011;16421;50.202;7.852;2023-09-08T03:16:04;2.67;;;1.77;;
29218;SDS011;16421;50.202;7.852;2023-09-08T03:21:08;3.90;;;2.05;;
29218;SDS011;16421;50.202;7.852;2023-09-08T03:26:12;5.65;;;2.20;;
29218;SDS011;16421;50.202;7.852;2023-09-08T03:31:17;2.47;;;2.08;;
29218;SDS011;16421;50.202;7.852;2023-09-08T03:36:20;3.70;;;2.40;;
29218;SDS011;16421;50.202;7.852;2023-09-08T03:41:24;2.22;;;1.80;;
29218;SDS011;16421;50.202;7.852;2023-09-08T03:46:29;2.33;;;2.00;;
29218;SDS011;16421;50.202;7.852;2023-09-08T03:51:32;2.22;;;1.90;;
29218;SDS011;16421;50.202;7.852;2023-09-08T03:56:35;2.45;;;1.92;;
29218;SDS011;16421;50.202;7.852;2023-09-08T04:01:40;2.17;;;1.98;;
29218;SDS011;16421;50.202;7.852;2023-09-08T04:06:44;2.88;;;2.05;;
29218;SDS011;16421;50.202;7.852;2023-09-08T04:11:48;2.60;;;1.90;;
29218;SDS011;16421;50.202;7.852;2023-09-08T04:16:53;2.38;;;2.08;;
29218;SDS011;16421;50.202;7.852;2023-09-08T04:21:56;2.05;;;1.65;;
29218;SDS011;16421;50.202;7.852;2023-09-08T04:27:00;2.83;;;1.90;;
29218;SDS011;16421;50.202;7.852;2023-09-08T04:32:05;2.15;;;1.90;;
29218;SDS011;16421;50.202;7.852;2023-09-08T04:37:10;2.70;;;2.13;;
29218;SDS011;16421;50.202;7.852;2023-09-08T04:42:13;2.58;;;2.22;;
29218;SDS011;16421;50.202;7.852;2023-09-08T04:47:18;2.85;;;1.88;;
29218;SDS011;16421;50.202;7.852;2023-09-08T04:52:21;2.75;;;2.13;;
29218;SDS011;16421;50.202;7.852;2023-09-08T04:57:25;2.97;;;2.25;;
29218;SDS011;16421;50.202;7.852;2023-09-08T05:02:33;2.45;;;2.25;;
29218;SDS011;16421;50.202;7.852;2023-09-08T05:07:37;4.35;;;2.10;;
29218;SDS011;16421;50.202;7.852;2023-09-08T05:12:41;2.38;;;2.10;;
29218;SDS011;16421;50.202;7.852;2023-09-08T05:17:46;2.15;;;1.95;;
29218;SDS011;16421;50.202;7.852;2023-09-08T05:22:52;2.85;;;2.10;;
29218;SDS011;16421;50.202;7.852;2023-09-08T05:27:56;2.53;;;2.00;;
29218;SDS011;16421;50.202;7.852;2023-09-08T05:33:01;2.70;;;2.03;;
29218;SDS011;16421;50.202;7.852;2023-09-08T05:38:04;2.38;;;2.08;;
29218;SDS011;16421;50.202;7.852;2023-09-08T05:43:07;2.47;;;2.20;;
29218;SDS011;16421;50.202;7.852;2023-09-08T05:48:12;5.03;;;2.30;;
29218;SDS011;16421;50.202;7.852;2023-09-08T05:53:16;4.32;;;2.30;;
29218;SDS011;16421;50.202;7.852;2023-09-08T05:58:19;2.38;;;2.10;;
29218;SDS011;16421;50.202;7.852;2023-09-08T06:03:27;3.25;;;2.33;;
29218;SDS011;16421;50.202;7.852;2023-09-08T06:08:31;3.05;;;2.30;;
29218;SDS011;16421;50.202;7.852;2023-09-08T06:13:35;2.00;;;1.75;;
29218;SDS011;16421;50.202;7.852;2023-09-08T06:18:41;4.43;;;2.25;;
29218;SDS011;16421;50.202;7.852;2023-09-08T06:23:49;3.20;;;2.20;;
29218;SDS011;16421;50.202;7.852;2023-09-08T06:28:53;2.92;;;2.30;;
29218;SDS011;16421;50.202;7.852;2023-09-08T06:33:57;2.92;;;2.33;;
29218;SDS011;16421;50.202;7.852;2023-09-08T06:39:01;2.60;;;1.95;;
29218;SDS011;16421;50.202;7.852;2023-09-08T06:44:06;2.40;;;1.90;;
29218;SDS011;16421;50.202;7.852;2023-09-08T06:49:11;3.25;;;2.25;;
29218;SDS011;16421;50.202;7.852;2023-09-08T06:54:15;2.35;;;2.13;;
29218;SDS011;16421;50.202;7.852;2023-09-08T06:59:19;2.70;;;2.22;;
29218;SDS011;16421;50.202;7.852;2023-09-08T07:04:23;2.67;;;2.30;;
29218;SDS011;16421;50.202;7.852;2023-09-08T07:09:27;2.38;;;2.00;;
29218;SDS011;16421;50.202;7.852;2023-09-08T07:14:31;2.38;;;1.80;;
29218;SDS011;16421;50.202;7.852;2023-09-08T07:19:36;4.38;;;2.40;;
29218;SDS011;16421;50.202;7.852;2023-09-08T07:24:40;5.13;;;2.30;;
29218;SDS011;16421;50.202;7.852;2023-09-08T07:29:43;2.88;;;2.30;;
29218;SDS011;16421;50.202;7.852;2023-09-08T07:34:50;3.83;;;2.13;;
29218;SDS011;16421;50.202;7.852;2023-09-08T07:39:57;4.47;;;2.47;;
29218;SDS011;16421;50.202;7.852;2023-09-08T07:45:00;3.05;;;2.60;;
29218;SDS011;16421;50.202;7.852;2023-09-08T07:50:17;9.93;;;2.45;;
29218;SDS011;16421;50.202;7.852;2023-09-08T07:55:23;3.30;;;1.70;;
29218;SDS011;16421;50.202;7.852;2023-09-08T08:00:28;2.43;;;1.70;;
29218;SDS011;16421;50.202;7.852;2023-09-08T08:05:33;2.20;;;1.75;;
29218;SDS011;16421;50.202;7.852;2023-09-08T08:10:36;3.00;;;2.50;;
29218;SDS011;16421;50.202;7.852;2023-09-08T08:15:40;4.88;;;1.95;;
29218;SDS011;16421;50.202;7.852;2023-09-08T08:20:45;3.28;;;1.90;;
29218;SDS011;16421;50.202;7.852;2023-09-08T08:25:49;5.63;;;3.55;;
29218;SDS011;16421;50.202;7.852;2023-09-08T08:30:52;3.05;;;2.47;;
29218;SDS011;16421;50.202;7.852;2023-09-08T08:35:58;4.28;;;2.28;;
29218;SDS011;16421;50.202;7.852;2023-09-08T08:41:02;2.10;;;1.88;;
29218;SDS011;16421;50.202;7.852;2023-09-08T08:46:06;4.82;;;2.13;;
29218;SDS011;16421;50.202;7.852;2023-09-08T08:51:11;3.88;;;1.95;;
29218;SDS011;16421;50.202;7.852;2023-09-08T08:56:16;2.47;;;2.20;;
29218;SDS011;16421;50.202;7.852;2023-09-08T09:01:20;5.20;;;1.77;;
29218;SDS011;16421;50.202;7.852;2023-09-08T09:06:26;1.90;;;1.73;;
29218;SDS011;16421;50.202;7.852;2023-09-08T09:11:29;2.00;;;1.80;;
29218;SDS011;16421;50.202;7.852;2023-09-08T09:16:38;2.85;;;2.10;;
29218;SDS011;16421;50.202;7.852;2023-09-08T09:21:44;2.30;;;2.10;;
29218;SDS011;16421;50.202;7.852;2023-09-08T09:26:51;3.15;;;2.20;;
29218;SDS011;16421;50.202;7.852;2023-09-08T09:31:56;1.90;;;1.67;;
29218;SDS011;16421;50.202;7.852;2023-09-08T09:37:02;1.98;;;1.30;;
29218;SDS011;16421;50.202;7.852;2023-09-08T09:42:08;1.65;;;1.35;;
29218;SDS011;16421;50.202;7.852;2023-09-08T09:47:11;1.38;;;1.25;;
29218;SDS011;16421;50.202;7.852;2023-09-08T09:52:21;2.05;;;1.70;;
29218;SDS011;16421;50.202;7.852;2023-09-08T09:57:27;1.98;;;1.70;;
29218;SDS011;16421;50.202;7.852;2023-09-08T10:02:31;1.83;;;1.40;;
29218;SDS011;16421;50.202;7.852;2023-09-08T10:07:36;2.58;;;1.50;;
29218;SDS011;16421;50.202;7.852;2023-09-08T10:12:40;1.58;;;1.40;;
29218;SDS011;16421;50.202;7.852;2023-09-08T10:17:47;4.18;;;1.90;;
29218;SDS011;16421;50.202;7.852;2023-09-08T10:22:59;1.58;;;1.40;;
29218;SDS011;16421;50.202;7.852;2023-09-08T10:28:08;1.75;;;1.52;;
29218;SDS011;16421;50.202;7.852;2023-09-08T10:33:12;1.90;;;1.70;;
29218;SDS011;16421;50.202;7.852;2023-09-08T10:38:24;4.22;;;1.63;;
29218;SDS011;16421;50.202;7.852;2023-09-08T10:43:28;2.15;;;1.50;;
29218;SDS011;16421;50.202;7.852;2023-09-08T10:48:37;2.05;;;1.50;;
29218;SDS011;16421;50.202;7.852;2023-09-08T10:53:47;2.15;;;1.65;;
29218;SDS011;16421;50.202;7.852;2023-09-08T10:58:51;2.97;;;1.58;;
29218;SDS011;16421;50.202;7.852;2023-09-08T11:03:56;1.75;;;1.42;;
29218;SDS011;16421;50.202;7.852;2023-09-08T11:09:07;2.72;;;2.05;;
29218;SDS011;16421;50.202;7.852;2023-09-08T11:14:11;2.55;;;1.70;;
29218;SDS011;16421;50.202;7.852;2023-09-08T11:19:14;2.10;;;1.48;;
29218;SDS011;16421;50.202;7.852;2023-09-08T11:24:18;2.63;;;1.38;;
29218;SDS011;16421;50.202;7.852;2023-09-08T11:29:22;1.60;;;1.50;;
29218;SDS011;16421;50.202;7.852;2023-09-08T11:34:27;2.87;;;1.73;;
29218;SDS011;16421;50.202;7.852;2023-09-08T11:39:33;1.67;;;1.50;;
29218;SDS011;16421;50.202;7.852;2023-09-08T11:44:40;2.08;;;1.55;;
29218;SDS011;16421;50.202;7.852;2023-09-08T11:49:44;1.50;;;1.27;;
29218;SDS011;16421;50.202;7.852;2023-09-08T11:54:48;1.60;;;1.38;;
29218;SDS011;16421;50.202;7.852;2023-09-08T11:59:56;1.58;;;1.42;;
29218;SDS011;16421;50.202;7.852;2023-09-08T12:05:00;1.77;;;1.40;;
29218;SDS011;16421;50.202;7.852;2023-09-08T12:10:07;1.27;;;1.00;;
29218;SDS011;16421;50.202;7.852;2023-09-08T12:15:12;1.58;;;1.25;;
29218;SDS011;16421;50.202;7.852;2023-09-08T12:20:33;1.70;;;1.60;;
29218;SDS011;16421;50.202;7.852;2023-09-08T12:25:45;1.40;;;1.30;;
29218;SDS011;16421;50.202;7.852;2023-09-08T12:30:49;1.90;;;1.55;;
29218;SDS011;16421;50.202;7.852;2023-09-08T12:35:52;1.98;;;1.77;;
29218;SDS011;16421;50.202;7.852;2023-09-08T12:40:58;1.67;;;1.40;;
29218;SDS011;16421;50.202;7.852;2023-09-08T12:46:01;2.33;;;1.23;;
29218;SDS011;16421;50.202;7.852;2023-09-08T12:51:04;2.70;;;1.60;;
29218;SDS011;16421;50.202;7.852;2023-09-08T12:56:09;1.50;;;1.40;;
29218;SDS011;16421;50.202;7.852;2023-09-08T13:01:12;2.28;;;1.65;;
29218;SDS011;16421;50.202;7.852;2023-09-08T13:06:15;1.88;;;1.38;;
29218;SDS011;16421;50.202;7.852;2023-09-08T13:11:20;2.42;;;1.48;;
29218;SDS011;16421;50.202;7.852;2023-09-08T13:16:23;1.73;;;1.50;;
29218;SDS011;16421;50.202;7.852;2023-09-08T13:21:27;1.55;;;1.45;;
29218;SDS011;16421;50.202;7.852;2023-09-08T13:26:32;1.60;;;1.50;;
29218;SDS011;16421;50.202;7.852;2023-09-08T13:31:35;2.13;;;1.67;;
29218;SDS011;16421;50.202;7.852;2023-09-08T13:36:38;1.58;;;1.48;;
29218;SDS011;16421;50.202;7.852;2023-09-08T13:41:47;2.47;;;1.70;;
29218;SDS011;16421;50.202;7.852;2023-09-08T13:46:52;1.70;;;1.58;;
29218;SDS011;16421;50.202;7.852;2023-09-08T13:51:56;2.33;;;1.60;;
29218;SDS011;16421;50.202;7.852;2023-09-08T13:57:03;2.42;;;1.45;;
29218;SDS011;16421;50.202;7.852;2023-09-08T14:02:08;1.85;;;1.35;;
29218;SDS011;16421;50.202;7.852;2023-09-08T14:07:14;1.52;;;1.42;;
29218;SDS011;16421;50.202;7.852;2023-09-08T14:12:19;1.53;;;1.43;;
29218;SDS011;16421;50.202;7.852;2023-09-08T14:17:24;1.88;;;1.60;;
29218;SDS011;16421;50.202;7.852;2023-09-08T14:22:27;1.48;;;1.38;;
29218;SDS011;16421;50.202;7.852;2023-09-08T14:27:32;1.42;;;1.33;;
29218;SDS011;16421;50.202;7.852;2023-09-08T14:32:36;2.47;;;1.17;;
29218;SDS011;16421;50.202;7.852;2023-09-08T14:37:40;1.93;;;1.73;;
29218;SDS011;16421;50.202;7.852;2023-09-08T14:42:45;1.80;;;1.45;;
29218;SDS011;16421;50.202;7.852;2023-09-08T14:52:51;1.65;;;1.52;;
29218;SDS011;16421;50.202;7.852;2023-09-08T14:57:56;1.77;;;1.48;;
29218;SDS011;16421;50.202;7.852;2023-09-08T15:08:05;1.70;;;1.60;;
29218;SDS011;16421;50.202;7.852;2023-09-08T15:13:10;1.33;;;1.15;;
29218;SDS011;16421;50.202;7.852;2023-09-08T15:18:14;1.85;;;1.38;;
29218;SDS011;16421;50.202;7.852;2023-09-08T15:23:18;2.00;;;1.63;;
29218;SDS011;16421;50.202;7.852;2023-09-08T15:28:23;2.50;;;1.20;;
29218;SDS011;16421;50.202;7.852;2023-09-08T15:33:27;1.70;;;1.30;;
29218;SDS011;16421;50.202;7.852;2023-09-08T15:38:30;1.30;;;1.20;;
29218;SDS011;16421;50.202;7.852;2023-09-08T15:43:35;1.65;;;1.45;;
29218;SDS011;16421;50.202;7.852;2023-09-08T15:48:39;1.52;;;1.35;;
29218;SDS011;16421;50.202;7.852;2023-09-08T15:53:43;2.22;;;1.60;;
29218;SDS011;16421;50.202;7.852;2023-09-08T15:58:48;2.95;;;1.80;;
29218;SDS011;16421;50.202;7.852;2023-09-08T16:03:52;2.70;;;1.65;;
29218;SDS011;16421;50.202;7.852;2023-09-08T16:08:55;2.13;;;1.88;;
29218;SDS011;16421;50.202;7.852;2023-09-08T16:14:00;2.65;;;1.80;;
29218;SDS011;16421;50.202;7.852;2023-09-08T16:19:03;1.73;;;1.25;;
29218;SDS011;16421;50.202;7.852;2023-09-08T16:24:06;2.92;;;1.83;;
29218;SDS011;16421;50.202;7.852;2023-09-08T16:29:11;1.75;;;1.65;;
29218;SDS011;16421;50.202;7.852;2023-09-08T16:34:14;2.10;;;1.80;;
29218;SDS011;16421;50.202;7.852;2023-09-08T16:39:17;2.88;;;1.60;;
29218;SDS011;16421;50.202;7.852;2023-09-08T16:44:22;4.93;;;1.70;;
29218;SDS011;16421;50.202;7.852;2023-09-08T16:49:27;2.03;;;1.58;;
29218;SDS011;16421;50.202;7.852;2023-09-08T16:59:37;1.50;;;1.30;;
29218;SDS011;16421;50.202;7.852;2023-09-08T17:04:40;3.70;;;1.70;;
29218;SDS011;16421;50.202;7.852;2023-09-08T17:09:47;2.28;;;2.03;;
29218;SDS011;16421;50.202;7.852;2023-09-08T17:14:51;1.70;;;1.50;;
29218;SDS011;16421;50.202;7.852;2023-09-08T17:19:55;2.35;;;1.70;;
29218;SDS011;16421;50.202;7.852;2023-09-08T17:25:00;1.95;;;1.65;;
29218;SDS011;16421;50.202;7.852;2023-09-08T17:30:06;2.00;;;1.65;;
29218;SDS011;16421;50.202;7.852;2023-09-08T17:35:10;2.15;;;1.95;;
29218;SDS011;16421;50.202;7.852;2023-09-08T17:40:13;2.83;;;2.10;;
29218;SDS011;16421;50.202;7.852;2023-09-08T17:45:18;2.13;;;1.90;;
29218;SDS011;16421;50.202;7.852;2023-09-08T17:50:21;1.80;;;1.67;;
29218;SDS011;16421;50.202;7.852;2023-09-08T17:55:24;3.95;;;1.98;;
29218;SDS011;16421;50.202;7.852;2023-09-08T18:00:29;2.22;;;1.90;;
29218;SDS011;16421;50.202;7.852;2023-09-08T18:05:32;2.55;;;2.10;;
29218;SDS011;16421;50.202;7.852;2023-09-08T18:10:36;2.40;;;2.00;;
29218;SDS011;16421;50.202;7.852;2023-09-08T18:15:40;3.35;;;2.20;;
29218;SDS011;16421;50.202;7.852;2023-09-08T18:20:44;2.90;;;1.87;;
29218;SDS011;16421;50.202;7.852;2023-09-08T18:25:47;2.20;;;1.95;;
29218;SDS011;16421;50.202;7.852;2023-09-08T18:30:52;2.10;;;1.85;;
29218;SDS011;16421;50.202;7.852;2023-09-08T18:35:55;4.07;;;2.63;;
29218;SDS011;16421;50.202;7.852;2023-09-08T18:40:59;3.60;;;1.83;;
29218;SDS011;16421;50.202;7.852;2023-09-08T18:46:04;3.50;;;2.83;;
29218;SDS011;16421;50.202;7.852;2023-09-08T18:51:07;4.53;;;2.97;;
29218;SDS011;16421;50.202;7.852;2023-09-08T18:56:10;5.82;;;3.53;;
29218;SDS011;16421;50.202;7.852;2023-09-08T19:01:16;6.22;;;3.40;;
29218;SDS011;16421;50.202;7.852;2023-09-08T19:06:20;4.67;;;3.30;;
29218;SDS011;16421;50.202;7.852;2023-09-08T19:11:23;3.70;;;3.13;;
29218;SDS011;16421;50.202;7.852;2023-09-08T19:16:28;5.00;;;3.00;;
29218;SDS011;16421;50.202;7.852;2023-09-08T19:21:32;4.50;;;2.78;;
29218;SDS011;16421;50.202;7.852;2023-09-08T19:26:35;4.40;;;2.70;;
29218;SDS011;16421;50.202;7.852;2023-09-08T19:31:40;8.57;;;2.97;;
29218;SDS011;16421;50.202;7.852;2023-09-08T19:36:43;3.53;;;2.83;;
29218;SDS011;16421;50.202;7.852;2023-09-08T19:41:47;4.55;;;3.17;;
29218;SDS011;16421;50.202;7.852;2023-09-08T19:46:52;4.95;;;3.25;;
29218;SDS011;16421;50.202;7.852;2023-09-08T19:51:55;4.70;;;3.17;;
29218;SDS011;16421;50.202;7.852;2023-09-08T19:56:59;3.35;;;2.72;;
29218;SDS011;16421;50.202;7.852;2023-09-08T20:02:03;4.97;;;2.67;;
29218;SDS011;16421;50.202;7.852;2023-09-08T20:07:07;4.20;;;3.13;;
29218;SDS011;16421;50.202;7.852;2023-09-08T20:12:11;8.88;;;2.90;;
29218;SDS011;16421;50.202;7.852;2023-09-08T20:17:16;3.92;;;2.85;;
29218;SDS011;16421;50.202;7.852;2023-09-08T20:22:20;4.60;;;3.00;;
29218;SDS011;16421;50.202;7.852;2023-09-08T20:27:23;3.78;;;2.70;;
29218;SDS011;16421;50.202;7.852;2023-09-08T20:32:29;2.97;;;2.65;;
29218;SDS011;16421;50.202;7.852;2023-09-08T20:37:32;3.60;;;2.50;;
29218;SDS011;16421;50.202;7.852;2023-09-08T20:42:36;4.28;;;3.10;;
29218;SDS011;16421;50.202;7.852;2023-09-08T20:47:42;3.75;;;2.83;;
29218;SDS011;16421;50.202;7.852;2023-09-08T20:52:45;3.20;;;2.40;;
29218;SDS011;16421;50.202;7.852;2023-09-08T20:57:49;4.63;;;2.92;;
29218;SDS011;16421;50.202;7.852;2023-09-08T21:02:54;3.22;;;2.45;;
29218;SDS011;16421;50.202;7.852;2023-09-08T21:07:57;3.37;;;2.77;;
29218;SDS011;16421;50.202;7.852;2023-09-08T21:13:01;4.53;;;2.55;;
29218;SDS011;16421;50.202;7.852;2023-09-08T21:18:06;3.30;;;2.70;;
29218;SDS011;16421;50.202;7.852;2023-09-08T21:23:09;4.00;;;2.47;;
29218;SDS011;16421;50.202;7.852;2023-09-08T21:28:13;3.83;;;2.35;;
29218;SDS011;16421;50.202;7.852;2023-09-08T21:33:19;3.53;;;2.80;;
29218;SDS011;16421;50.202;7.852;2023-09-08T21:38:22;2.53;;;2.33;;
29218;SDS011;16421;50.202;7.852;2023-09-08T21:43:26;5.70;;;2.80;;
29218;SDS011;16421;50.202;7.852;2023-09-08T21:48:31;3.80;;;2.65;;
29218;SDS011;16421;50.202;7.852;2023-09-08T21:53:35;5.03;;;2.37;;
29218;SDS011;16421;50.202;7.852;2023-09-08T21:58:38;3.47;;;2.75;;
29218;SDS011;16421;50.202;7.852;2023-09-08T22:03:43;4.13;;;2.80;;
29218;SDS011;16421;50.202;7.852;2023-09-08T22:08:47;4.20;;;2.53;;
29218;SDS011;16421;50.202;7.852;2023-09-08T22:13:50;3.35;;;2.40;;
29218;SDS011;16421;50.202;7.852;2023-09-08T22:18:55;3.08;;;2.50;;
29218;SDS011;16421;50.202;7.852;2023-09-08T22:23:59;3.42;;;2.65;;
29218;SDS011;16421;50.202;7.852;2023-09-08T22:29:03;4.35;;;2.80;;
29218;SDS011;16421;50.202;7.852;2023-09-08T22:34:08;11.45;;;3.60;;
29218;SDS011;16421;50.202;7.852;2023-09-08T22:39:12;3.13;;;2.53;;
29218;SDS011;16421;50.202;7.852;2023-09-08T22:44:15;3.45;;;2.80;;
29218;SDS011;16421;50.202;7.852;2023-09-08T22:49:22;6.30;;;3.03;;
29218;SDS011;16421;50.202;7.852;2023-09-08T22:59:30;3.38;;;2.70;;
29218;SDS011;16421;50.202;7.852;2023-09-08T23:04:35;3.22;;;2.53;;
29218;SDS011;16421;50.202;7.852;2023-09-08T23:09:39;4.20;;;2.95;;
29218;SDS011;16421;50.202;7.852;2023-09-08T23:14:43;2.97;;;2.45;;
29218;SDS011;16421;50.202;7.852;2023-09-08T23:19:55;3.30;;;2.60;;
29218;SDS011;16421;50.202;7.852;2023-09-08T23:24:58;4.95;;;2.80;;
29218;SDS011;16421;50.202;7.852;2023-09-08T23:30:02;3.45;;;2.60;;
29218;SDS011;16421;50.202;7.852;2023-09-08T23:35:08;4.43;;;2.70;;
29218;SDS011;16421;50.202;7.852;2023-09-08T23:40:11;3.97;;;2.72;;
29218;SDS011;16421;50.202;7.852;2023-09-08T23:45:15;4.43;;;2.80;;
29218;SDS011;16421;50.202;7.852;2023-09-08T23:50:27;5.72;;;3.70;;
29218;SDS011;16421;50.202;7.852;2023-09-08T23:55:50;2.85;;;2.58;;
